sensor_id;sensor_type;location;lat;lon;timestamp;P1;durP1;ratioP1;P2;durP2;ratioP2
19163;SDS011;9714;51.208;4.242;2023-05-10T00:02:13;29.53;;;14.40;;
19163;SDS011;9714;51.208;4.242;2023-05-10T00:04:40;32.53;;;15.20;;
19163;SDS011;9714;51.208;4.242;2023-05-10T00:07:15;32.83;;;14.57;;
19163;SDS011;9714;51.208;4.242;2023-05-10T00:09:42;36.37;;;14.90;;
19163;SDS011;9714;51.208;4.242;2023-05-10T00:12:10;33.77;;;14.47;;
19163;SDS011;9714;51.208;4.242;2023-05-10T00:14:37;26.77;;;14.53;;
19163;SDS011;9714;51.208;4.242;2023-05-10T00:17:04;28.63;;;13.50;;
19163;SDS011;9714;51.208;4.242;2023-05-10T00:19:31;26.80;;;13.97;;
19163;SDS011;9714;51.208;4.242;2023-05-10T00:21:58;24.57;;;13.93;;
19163;SDS011;9714;51.208;4.242;2023-05-10T00:24:27;28.10;;;13.87;;
19163;SDS011;9714;51.208;4.242;2023-05-10T00:26:54;28.33;;;13.53;;
19163;SDS011;9714;51.208;4.242;2023-05-10T00:29:22;28.77;;;12.97;;
19163;SDS011;9714;51.208;4.242;2023-05-10T00:31:49;28.90;;;14.00;;
19163;SDS011;9714;51.208;4.242;2023-05-10T00:34:16;31.57;;;13.93;;
19163;SDS011;9714;51.208;4.242;2023-05-10T00:36:43;31.77;;;13.07;;
19163;SDS011;9714;51.208;4.242;2023-05-10T00:39:10;28.53;;;13.63;;
19163;SDS011;9714;51.208;4.242;2023-05-10T00:41:39;31.47;;;13.93;;
19163;SDS011;9714;51.208;4.242;2023-05-10T00:44:06;28.53;;;14.43;;
19163;SDS011;9714;51.208;4.242;2023-05-10T00:46:33;34.07;;;15.20;;
19163;SDS011;9714;51.208;4.242;2023-05-10T00:49:01;32.63;;;15.10;;
19163;SDS011;9714;51.208;4.242;2023-05-10T00:51:29;33.33;;;13.97;;
19163;SDS011;9714;51.208;4.242;2023-05-10T00:53:57;31.70;;;15.00;;
19163;SDS011;9714;51.208;4.242;2023-05-10T00:56:25;34.23;;;15.10;;
19163;SDS011;9714;51.208;4.242;2023-05-10T00:58:56;32.27;;;15.70;;
19163;SDS011;9714;51.208;4.242;2023-05-10T01:01:23;34.07;;;16.43;;
19163;SDS011;9714;51.208;4.242;2023-05-10T01:03:50;34.23;;;18.37;;
19163;SDS011;9714;51.208;4.242;2023-05-10T01:06:18;38.73;;;18.30;;
19163;SDS011;9714;51.208;4.242;2023-05-10T01:08:45;41.90;;;18.13;;
19163;SDS011;9714;51.208;4.242;2023-05-10T01:11:12;42.37;;;19.80;;
19163;SDS011;9714;51.208;4.242;2023-05-10T01:13:40;35.37;;;18.87;;
19163;SDS011;9714;51.208;4.242;2023-05-10T01:16:11;43.60;;;19.53;;
19163;SDS011;9714;51.208;4.242;2023-05-10T01:18:41;47.47;;;20.03;;
19163;SDS011;9714;51.208;4.242;2023-05-10T01:21:14;38.23;;;19.17;;
19163;SDS011;9714;51.208;4.242;2023-05-10T01:29:51;43.37;;;19.33;;
19163;SDS011;9714;51.208;4.242;2023-05-10T01:32:37;37.57;;;18.83;;
19163;SDS011;9714;51.208;4.242;2023-05-10T01:35:14;34.03;;;18.07;;
19163;SDS011;9714;51.208;4.242;2023-05-10T01:37:50;36.50;;;18.33;;
19163;SDS011;9714;51.208;4.242;2023-05-10T01:40:29;39.77;;;19.53;;
19163;SDS011;9714;51.208;4.242;2023-05-10T01:43:02;33.60;;;18.63;;
19163;SDS011;9714;51.208;4.242;2023-05-10T01:45:36;36.73;;;18.57;;
19163;SDS011;9714;51.208;4.242;2023-05-10T01:48:08;39.67;;;18.70;;
19163;SDS011;9714;51.208;4.242;2023-05-10T01:50:37;34.90;;;18.63;;
19163;SDS011;9714;51.208;4.242;2023-05-10T01:53:08;38.47;;;19.30;;
19163;SDS011;9714;51.208;4.242;2023-05-10T01:55:39;41.27;;;21.43;;
19163;SDS011;9714;51.208;4.242;2023-05-10T01:58:14;36.60;;;19.47;;
19163;SDS011;9714;51.208;4.242;2023-05-10T02:00:46;39.50;;;21.27;;
19163;SDS011;9714;51.208;4.242;2023-05-10T02:03:18;37.40;;;19.93;;
19163;SDS011;9714;51.208;4.242;2023-05-10T02:05:48;39.63;;;19.33;;
19163;SDS011;9714;51.208;4.242;2023-05-10T02:08:18;39.17;;;21.10;;
19163;SDS011;9714;51.208;4.242;2023-05-10T02:10:47;35.80;;;19.83;;
19163;SDS011;9714;51.208;4.242;2023-05-10T02:13:19;42.63;;;21.93;;
19163;SDS011;9714;51.208;4.242;2023-05-10T02:15:48;38.10;;;21.23;;
19163;SDS011;9714;51.208;4.242;2023-05-10T02:18:17;41.57;;;23.53;;
19163;SDS011;9714;51.208;4.242;2023-05-10T02:20:45;40.60;;;22.80;;
19163;SDS011;9714;51.208;4.242;2023-05-10T02:23:13;41.50;;;23.37;;
19163;SDS011;9714;51.208;4.242;2023-05-10T02:25:42;47.83;;;24.87;;
19163;SDS011;9714;51.208;4.242;2023-05-10T02:28:10;77.43;;;35.83;;
19163;SDS011;9714;51.208;4.242;2023-05-10T02:30:39;75.97;;;38.57;;
19163;SDS011;9714;51.208;4.242;2023-05-10T02:33:06;76.93;;;40.20;;
19163;SDS011;9714;51.208;4.242;2023-05-10T02:35:35;88.40;;;43.77;;
19163;SDS011;9714;51.208;4.242;2023-05-10T02:38:04;86.83;;;45.33;;
19163;SDS011;9714;51.208;4.242;2023-05-10T02:40:32;86.80;;;44.07;;
19163;SDS011;9714;51.208;4.242;2023-05-10T02:43:01;79.33;;;39.70;;
19163;SDS011;9714;51.208;4.242;2023-05-10T02:45:30;86.23;;;42.23;;
19163;SDS011;9714;51.208;4.242;2023-05-10T02:47:58;75.63;;;39.63;;
19163;SDS011;9714;51.208;4.242;2023-05-10T02:50:27;79.00;;;41.20;;
19163;SDS011;9714;51.208;4.242;2023-05-10T02:53:00;67.03;;;37.57;;
19163;SDS011;9714;51.208;4.242;2023-05-10T02:55:31;77.03;;;37.23;;
19163;SDS011;9714;51.208;4.242;2023-05-10T02:58:05;59.40;;;33.27;;
19163;SDS011;9714;51.208;4.242;2023-05-10T03:00:32;67.40;;;35.07;;
19163;SDS011;9714;51.208;4.242;2023-05-10T03:03:00;61.10;;;34.30;;
19163;SDS011;9714;51.208;4.242;2023-05-10T03:05:27;63.40;;;34.30;;
19163;SDS011;9714;51.208;4.242;2023-05-10T03:07:59;59.83;;;32.90;;
19163;SDS011;9714;51.208;4.242;2023-05-10T03:10:29;63.03;;;31.47;;
19163;SDS011;9714;51.208;4.242;2023-05-10T03:13:01;63.63;;;32.97;;
19163;SDS011;9714;51.208;4.242;2023-05-10T03:15:42;62.90;;;31.50;;
19163;SDS011;9714;51.208;4.242;2023-05-10T03:18:15;62.63;;;31.80;;
19163;SDS011;9714;51.208;4.242;2023-05-10T03:20:48;59.77;;;31.03;;
19163;SDS011;9714;51.208;4.242;2023-05-10T03:23:22;65.17;;;31.83;;
19163;SDS011;9714;51.208;4.242;2023-05-10T03:25:55;64.20;;;31.97;;
19163;SDS011;9714;51.208;4.242;2023-05-10T03:28:35;64.33;;;32.27;;
19163;SDS011;9714;51.208;4.242;2023-05-10T03:31:05;65.30;;;31.07;;
19163;SDS011;9714;51.208;4.242;2023-05-10T03:33:33;64.93;;;32.53;;
19163;SDS011;9714;51.208;4.242;2023-05-10T03:36:01;65.27;;;29.37;;
19163;SDS011;9714;51.208;4.242;2023-05-10T03:38:29;60.57;;;29.00;;
19163;SDS011;9714;51.208;4.242;2023-05-10T03:40:56;56.23;;;28.67;;
19163;SDS011;9714;51.208;4.242;2023-05-10T03:43:25;62.83;;;30.40;;
19163;SDS011;9714;51.208;4.242;2023-05-10T03:45:52;54.47;;;27.30;;
19163;SDS011;9714;51.208;4.242;2023-05-10T03:48:19;58.47;;;28.07;;
19163;SDS011;9714;51.208;4.242;2023-05-10T03:50:47;58.03;;;27.53;;
19163;SDS011;9714;51.208;4.242;2023-05-10T03:53:16;60.20;;;28.37;;
19163;SDS011;9714;51.208;4.242;2023-05-10T03:55:44;57.13;;;27.17;;
19163;SDS011;9714;51.208;4.242;2023-05-10T03:58:11;50.80;;;26.57;;
19163;SDS011;9714;51.208;4.242;2023-05-10T04:00:39;53.73;;;27.00;;
19163;SDS011;9714;51.208;4.242;2023-05-10T04:03:14;51.73;;;27.33;;
19163;SDS011;9714;51.208;4.242;2023-05-10T04:05:44;50.87;;;25.83;;
19163;SDS011;9714;51.208;4.242;2023-05-10T04:10:41;61.90;;;28.67;;
19163;SDS011;9714;51.208;4.242;2023-05-10T04:13:10;52.80;;;27.43;;
19163;SDS011;9714;51.208;4.242;2023-05-10T04:15:37;56.33;;;27.90;;
19163;SDS011;9714;51.208;4.242;2023-05-10T04:18:04;60.77;;;29.00;;
19163;SDS011;9714;51.208;4.242;2023-05-10T04:20:33;65.97;;;31.40;;
19163;SDS011;9714;51.208;4.242;2023-05-10T04:23:01;62.00;;;29.80;;
19163;SDS011;9714;51.208;4.242;2023-05-10T04:25:28;54.53;;;27.93;;
19163;SDS011;9714;51.208;4.242;2023-05-10T04:28:02;53.60;;;28.33;;
19163;SDS011;9714;51.208;4.242;2023-05-10T04:30:33;57.30;;;28.80;;
19163;SDS011;9714;51.208;4.242;2023-05-10T04:33:00;61.50;;;31.17;;
19163;SDS011;9714;51.208;4.242;2023-05-10T04:35:27;57.20;;;30.20;;
19163;SDS011;9714;51.208;4.242;2023-05-10T04:37:54;61.50;;;31.53;;
19163;SDS011;9714;51.208;4.242;2023-05-10T04:40:21;64.50;;;31.10;;
19163;SDS011;9714;51.208;4.242;2023-05-10T04:42:50;58.17;;;31.23;;
19163;SDS011;9714;51.208;4.242;2023-05-10T04:45:17;57.40;;;31.97;;
19163;SDS011;9714;51.208;4.242;2023-05-10T04:47:45;56.70;;;31.53;;
19163;SDS011;9714;51.208;4.242;2023-05-10T04:50:13;55.97;;;30.90;;
19163;SDS011;9714;51.208;4.242;2023-05-10T04:52:41;59.93;;;31.90;;
19163;SDS011;9714;51.208;4.242;2023-05-10T04:55:08;54.83;;;29.73;;
19163;SDS011;9714;51.208;4.242;2023-05-10T04:57:35;58.80;;;32.03;;
19163;SDS011;9714;51.208;4.242;2023-05-10T05:00:02;56.67;;;32.13;;
19163;SDS011;9714;51.208;4.242;2023-05-10T05:02:30;55.13;;;31.13;;
19163;SDS011;9714;51.208;4.242;2023-05-10T05:04:59;55.27;;;30.53;;
19163;SDS011;9714;51.208;4.242;2023-05-10T05:07:27;54.10;;;30.33;;
19163;SDS011;9714;51.208;4.242;2023-05-10T05:09:56;59.50;;;30.50;;
19163;SDS011;9714;51.208;4.242;2023-05-10T05:12:24;55.17;;;30.83;;
19163;SDS011;9714;51.208;4.242;2023-05-10T05:14:51;57.43;;;31.23;;
19163;SDS011;9714;51.208;4.242;2023-05-10T05:17:19;56.93;;;31.03;;
19163;SDS011;9714;51.208;4.242;2023-05-10T05:19:46;49.50;;;27.77;;
19163;SDS011;9714;51.208;4.242;2023-05-10T05:22:15;52.57;;;30.43;;
19163;SDS011;9714;51.208;4.242;2023-05-10T05:24:42;52.00;;;29.53;;
19163;SDS011;9714;51.208;4.242;2023-05-10T05:27:10;71.00;;;40.87;;
19163;SDS011;9714;51.208;4.242;2023-05-10T05:29:39;56.30;;;32.83;;
19163;SDS011;9714;51.208;4.242;2023-05-10T05:32:07;54.40;;;29.20;;
19163;SDS011;9714;51.208;4.242;2023-05-10T05:34:35;46.57;;;26.80;;
19163;SDS011;9714;51.208;4.242;2023-05-10T05:37:02;49.37;;;27.13;;
19163;SDS011;9714;51.208;4.242;2023-05-10T05:39:31;42.33;;;26.93;;
19163;SDS011;9714;51.208;4.242;2023-05-10T05:42:04;45.47;;;25.90;;
19163;SDS011;9714;51.208;4.242;2023-05-10T05:44:31;50.10;;;27.67;;
19163;SDS011;9714;51.208;4.242;2023-05-10T05:47:04;47.63;;;27.43;;
19163;SDS011;9714;51.208;4.242;2023-05-10T05:49:33;48.07;;;25.77;;
19163;SDS011;9714;51.208;4.242;2023-05-10T05:52:02;43.90;;;26.70;;
19163;SDS011;9714;51.208;4.242;2023-05-10T05:54:31;49.63;;;28.47;;
19163;SDS011;9714;51.208;4.242;2023-05-10T05:56:58;46.03;;;26.50;;
19163;SDS011;9714;51.208;4.242;2023-05-10T05:59:27;40.70;;;26.03;;
19163;SDS011;9714;51.208;4.242;2023-05-10T06:01:55;42.10;;;27.33;;
19163;SDS011;9714;51.208;4.242;2023-05-10T06:04:23;43.00;;;25.93;;
19163;SDS011;9714;51.208;4.242;2023-05-10T06:06:50;41.13;;;25.43;;
19163;SDS011;9714;51.208;4.242;2023-05-10T06:09:17;39.73;;;26.40;;
19163;SDS011;9714;51.208;4.242;2023-05-10T06:11:46;42.00;;;25.70;;
19163;SDS011;9714;51.208;4.242;2023-05-10T06:16:42;41.03;;;23.63;;
19163;SDS011;9714;51.208;4.242;2023-05-10T06:19:09;39.50;;;22.33;;
19163;SDS011;9714;51.208;4.242;2023-05-10T06:21:38;34.20;;;20.57;;
19163;SDS011;9714;51.208;4.242;2023-05-10T06:24:05;31.77;;;20.30;;
19163;SDS011;9714;51.208;4.242;2023-05-10T06:26:35;33.87;;;19.97;;
19163;SDS011;9714;51.208;4.242;2023-05-10T06:29:03;30.40;;;19.10;;
19163;SDS011;9714;51.208;4.242;2023-05-10T06:31:32;32.13;;;16.37;;
19163;SDS011;9714;51.208;4.242;2023-05-10T06:33:59;25.43;;;17.03;;
19163;SDS011;9714;51.208;4.242;2023-05-10T06:36:27;26.73;;;17.17;;
19163;SDS011;9714;51.208;4.242;2023-05-10T06:38:56;26.40;;;18.33;;
19163;SDS011;9714;51.208;4.242;2023-05-10T06:41:30;26.70;;;18.10;;
19163;SDS011;9714;51.208;4.242;2023-05-10T06:43:58;27.40;;;17.93;;
19163;SDS011;9714;51.208;4.242;2023-05-10T06:46:26;28.43;;;16.83;;
19163;SDS011;9714;51.208;4.242;2023-05-10T06:48:54;27.40;;;16.80;;
19163;SDS011;9714;51.208;4.242;2023-05-10T06:51:22;23.87;;;16.77;;
19163;SDS011;9714;51.208;4.242;2023-05-10T06:53:50;28.63;;;17.60;;
19163;SDS011;9714;51.208;4.242;2023-05-10T06:56:20;29.10;;;17.77;;
19163;SDS011;9714;51.208;4.242;2023-05-10T06:58:47;27.40;;;17.17;;
19163;SDS011;9714;51.208;4.242;2023-05-10T07:01:16;26.57;;;17.83;;
19163;SDS011;9714;51.208;4.242;2023-05-10T07:03:45;27.70;;;17.07;;
19163;SDS011;9714;51.208;4.242;2023-05-10T07:06:12;24.17;;;16.90;;
19163;SDS011;9714;51.208;4.242;2023-05-10T07:08:41;25.07;;;15.97;;
19163;SDS011;9714;51.208;4.242;2023-05-10T07:11:08;21.53;;;14.43;;
19163;SDS011;9714;51.208;4.242;2023-05-10T07:13:36;22.10;;;14.27;;
19163;SDS011;9714;51.208;4.242;2023-05-10T07:16:06;21.17;;;13.30;;
19163;SDS011;9714;51.208;4.242;2023-05-10T07:18:35;19.30;;;12.13;;
19163;SDS011;9714;51.208;4.242;2023-05-10T07:21:05;19.20;;;12.30;;
19163;SDS011;9714;51.208;4.242;2023-05-10T07:23:32;21.67;;;12.70;;
19163;SDS011;9714;51.208;4.242;2023-05-10T07:26:00;18.40;;;11.40;;
19163;SDS011;9714;51.208;4.242;2023-05-10T07:28:33;16.33;;;11.00;;
19163;SDS011;9714;51.208;4.242;2023-05-10T07:31:02;18.10;;;11.07;;
19163;SDS011;9714;51.208;4.242;2023-05-10T07:33:30;17.13;;;10.53;;
19163;SDS011;9714;51.208;4.242;2023-05-10T07:35:58;18.63;;;9.43;;
19163;SDS011;9714;51.208;4.242;2023-05-10T07:38:27;15.80;;;10.00;;
19163;SDS011;9714;51.208;4.242;2023-05-10T07:40:54;16.73;;;10.47;;
19163;SDS011;9714;51.208;4.242;2023-05-10T07:43:22;16.27;;;10.67;;
19163;SDS011;9714;51.208;4.242;2023-05-10T07:45:50;20.90;;;11.27;;
19163;SDS011;9714;51.208;4.242;2023-05-10T07:48:17;20.50;;;13.07;;
19163;SDS011;9714;51.208;4.242;2023-05-10T07:50:46;23.77;;;14.97;;
19163;SDS011;9714;51.208;4.242;2023-05-10T07:53:14;26.70;;;16.27;;
19163;SDS011;9714;51.208;4.242;2023-05-10T07:55:43;20.93;;;13.30;;
19163;SDS011;9714;51.208;4.242;2023-05-10T07:58:11;18.63;;;12.93;;
19163;SDS011;9714;51.208;4.242;2023-05-10T08:00:38;23.13;;;13.10;;
19163;SDS011;9714;51.208;4.242;2023-05-10T08:03:06;19.77;;;10.98;;
19163;SDS011;9714;51.208;4.242;2023-05-10T08:05:34;18.55;;;11.13;;
19163;SDS011;9714;51.208;4.242;2023-05-10T08:08:02;23.48;;;13.35;;
19163;SDS011;9714;51.208;4.242;2023-05-10T08:10:30;22.45;;;14.57;;
19163;SDS011;9714;51.208;4.242;2023-05-10T08:13:05;19.27;;;13.10;;
19163;SDS011;9714;51.208;4.242;2023-05-10T08:15:33;25.10;;;15.45;;
19163;SDS011;9714;51.208;4.242;2023-05-10T08:18:00;19.33;;;11.95;;
19163;SDS011;9714;51.208;4.242;2023-05-10T08:20:27;16.15;;;8.80;;
19163;SDS011;9714;51.208;4.242;2023-05-10T08:22:54;16.45;;;9.07;;
19163;SDS011;9714;51.208;4.242;2023-05-10T08:25:25;13.35;;;8.13;;
19163;SDS011;9714;51.208;4.242;2023-05-10T08:27:52;13.90;;;5.20;;
19163;SDS011;9714;51.208;4.242;2023-05-10T08:30:21;9.60;;;4.32;;
19163;SDS011;9714;51.208;4.242;2023-05-10T08:32:49;8.55;;;4.20;;
19163;SDS011;9714;51.208;4.242;2023-05-10T08:35:16;9.32;;;4.22;;
19163;SDS011;9714;51.208;4.242;2023-05-10T08:37:43;10.02;;;4.60;;
19163;SDS011;9714;51.208;4.242;2023-05-10T08:40:14;12.98;;;6.47;;
19163;SDS011;9714;51.208;4.242;2023-05-10T08:42:43;20.20;;;12.90;;
19163;SDS011;9714;51.208;4.242;2023-05-10T08:45:17;14.55;;;7.82;;
19163;SDS011;9714;51.208;4.242;2023-05-10T08:47:47;13.00;;;7.32;;
19163;SDS011;9714;51.208;4.242;2023-05-10T08:50:15;20.77;;;11.85;;
19163;SDS011;9714;51.208;4.242;2023-05-10T08:52:47;21.25;;;11.02;;
19163;SDS011;9714;51.208;4.242;2023-05-10T08:55:19;15.00;;;7.90;;
19163;SDS011;9714;51.208;4.242;2023-05-10T08:57:49;14.70;;;8.82;;
19163;SDS011;9714;51.208;4.242;2023-05-10T09:00:17;16.83;;;9.57;;
19163;SDS011;9714;51.208;4.242;2023-05-10T09:02:48;38.23;;;21.07;;
19163;SDS011;9714;51.208;4.242;2023-05-10T09:05:16;54.63;;;30.80;;
19163;SDS011;9714;51.208;4.242;2023-05-10T09:07:50;60.23;;;32.80;;
19163;SDS011;9714;51.208;4.242;2023-05-10T09:10:19;53.43;;;30.20;;
19163;SDS011;9714;51.208;4.242;2023-05-10T09:12:47;42.97;;;24.70;;
19163;SDS011;9714;51.208;4.242;2023-05-10T09:15:16;36.58;;;21.13;;
19163;SDS011;9714;51.208;4.242;2023-05-10T09:17:45;34.38;;;20.77;;
19163;SDS011;9714;51.208;4.242;2023-05-10T09:20:17;34.00;;;21.42;;
19163;SDS011;9714;51.208;4.242;2023-05-10T09:22:46;27.17;;;16.20;;
19163;SDS011;9714;51.208;4.242;2023-05-10T09:25:14;26.90;;;15.60;;
19163;SDS011;9714;51.208;4.242;2023-05-10T09:27:43;23.45;;;14.57;;
19163;SDS011;9714;51.208;4.242;2023-05-10T09:30:15;22.38;;;13.65;;
19163;SDS011;9714;51.208;4.242;2023-05-10T09:32:44;19.95;;;11.73;;
19163;SDS011;9714;51.208;4.242;2023-05-10T09:35:14;19.48;;;12.15;;
19163;SDS011;9714;51.208;4.242;2023-05-10T09:37:44;22.38;;;12.82;;
19163;SDS011;9714;51.208;4.242;2023-05-10T09:40:16;25.13;;;14.35;;
19163;SDS011;9714;51.208;4.242;2023-05-10T09:42:50;25.42;;;13.10;;
19163;SDS011;9714;51.208;4.242;2023-05-10T09:45:20;25.88;;;14.93;;
19163;SDS011;9714;51.208;4.242;2023-05-10T09:47:49;26.45;;;14.93;;
19163;SDS011;9714;51.208;4.242;2023-05-10T09:50:16;25.70;;;15.43;;
19163;SDS011;9714;51.208;4.242;2023-05-10T09:52:50;26.90;;;16.10;;
19163;SDS011;9714;51.208;4.242;2023-05-10T09:55:20;26.65;;;14.35;;
19163;SDS011;9714;51.208;4.242;2023-05-10T09:57:49;30.33;;;13.98;;
19163;SDS011;9714;51.208;4.242;2023-05-10T10:00:25;24.45;;;13.45;;
19163;SDS011;9714;51.208;4.242;2023-05-10T10:02:55;26.80;;;14.63;;
19163;SDS011;9714;51.208;4.242;2023-05-10T10:05:27;25.52;;;13.73;;
19163;SDS011;9714;51.208;4.242;2023-05-10T10:07:56;21.27;;;12.48;;
19163;SDS011;9714;51.208;4.242;2023-05-10T10:10:25;22.30;;;13.00;;
19163;SDS011;9714;51.208;4.242;2023-05-10T10:12:52;25.77;;;14.57;;
19163;SDS011;9714;51.208;4.242;2023-05-10T10:15:22;24.63;;;13.77;;
19163;SDS011;9714;51.208;4.242;2023-05-10T10:17:51;28.73;;;14.63;;
19163;SDS011;9714;51.208;4.242;2023-05-10T10:20:20;26.00;;;14.35;;
19163;SDS011;9714;51.208;4.242;2023-05-10T10:22:49;23.42;;;12.70;;
19163;SDS011;9714;51.208;4.242;2023-05-10T10:25:19;20.60;;;12.32;;
19163;SDS011;9714;51.208;4.242;2023-05-10T10:27:52;29.70;;;14.25;;
19163;SDS011;9714;51.208;4.242;2023-05-10T10:30:27;25.33;;;15.10;;
19163;SDS011;9714;51.208;4.242;2023-05-10T10:33:13;26.00;;;14.57;;
19163;SDS011;9714;51.208;4.242;2023-05-10T10:35:54;27.45;;;15.38;;
19163;SDS011;9714;51.208;4.242;2023-05-10T10:38:25;26.40;;;13.40;;
19163;SDS011;9714;51.208;4.242;2023-05-10T10:41:08;22.02;;;12.60;;
19163;SDS011;9714;51.208;4.242;2023-05-10T10:43:39;25.00;;;12.77;;
19163;SDS011;9714;51.208;4.242;2023-05-10T10:46:11;23.77;;;12.02;;
19163;SDS011;9714;51.208;4.242;2023-05-10T10:48:40;23.73;;;12.27;;
19163;SDS011;9714;51.208;4.242;2023-05-10T10:51:09;22.92;;;13.55;;
19163;SDS011;9714;51.208;4.242;2023-05-10T10:53:42;24.27;;;14.18;;
19163;SDS011;9714;51.208;4.242;2023-05-10T10:56:12;25.00;;;14.70;;
19163;SDS011;9714;51.208;4.242;2023-05-10T10:58:42;22.50;;;12.43;;
19163;SDS011;9714;51.208;4.242;2023-05-10T11:01:16;26.95;;;13.23;;
19163;SDS011;9714;51.208;4.242;2023-05-10T11:06:47;21.10;;;11.27;;
19163;SDS011;9714;51.208;4.242;2023-05-10T11:09:14;22.00;;;11.82;;
19163;SDS011;9714;51.208;4.242;2023-05-10T11:11:52;22.25;;;13.07;;
19163;SDS011;9714;51.208;4.242;2023-05-10T11:14:21;19.67;;;12.43;;
19163;SDS011;9714;51.208;4.242;2023-05-10T11:16:49;25.60;;;12.25;;
19163;SDS011;9714;51.208;4.242;2023-05-10T11:19:17;20.42;;;11.95;;
19163;SDS011;9714;51.208;4.242;2023-05-10T11:21:45;24.75;;;11.43;;
19163;SDS011;9714;51.208;4.242;2023-05-10T11:24:17;18.88;;;11.60;;
19163;SDS011;9714;51.208;4.242;2023-05-10T11:26:53;23.15;;;12.27;;
19163;SDS011;9714;51.208;4.242;2023-05-10T11:29:20;22.38;;;11.07;;
19163;SDS011;9714;51.208;4.242;2023-05-10T11:31:48;24.20;;;12.93;;
19163;SDS011;9714;51.208;4.242;2023-05-10T11:34:24;27.30;;;12.40;;
19163;SDS011;9714;51.208;4.242;2023-05-10T11:36:55;21.42;;;13.10;;
19163;SDS011;9714;51.208;4.242;2023-05-10T11:39:25;25.10;;;12.95;;
19163;SDS011;9714;51.208;4.242;2023-05-10T11:41:58;29.23;;;12.70;;
19163;SDS011;9714;51.208;4.242;2023-05-10T11:44:28;23.47;;;12.47;;
19163;SDS011;9714;51.208;4.242;2023-05-10T11:46:58;19.80;;;11.03;;
19163;SDS011;9714;51.208;4.242;2023-05-10T11:49:26;26.63;;;11.43;;
19163;SDS011;9714;51.208;4.242;2023-05-10T11:51:53;25.85;;;12.63;;
19163;SDS011;9714;51.208;4.242;2023-05-10T11:54:31;17.43;;;10.27;;
19163;SDS011;9714;51.208;4.242;2023-05-10T11:57:02;18.73;;;11.07;;
19163;SDS011;9714;51.208;4.242;2023-05-10T11:59:31;20.45;;;11.07;;
19163;SDS011;9714;51.208;4.242;2023-05-10T12:01:58;22.40;;;10.88;;
19163;SDS011;9714;51.208;4.242;2023-05-10T12:04:26;19.27;;;10.82;;
19163;SDS011;9714;51.208;4.242;2023-05-10T12:06:54;17.05;;;9.65;;
19163;SDS011;9714;51.208;4.242;2023-05-10T12:09:27;20.33;;;10.65;;
19163;SDS011;9714;51.208;4.242;2023-05-10T12:12:02;18.17;;;9.98;;
19163;SDS011;9714;51.208;4.242;2023-05-10T12:14:33;21.50;;;10.90;;
19163;SDS011;9714;51.208;4.242;2023-05-10T12:17:01;23.63;;;10.43;;
19163;SDS011;9714;51.208;4.242;2023-05-10T12:19:28;23.60;;;10.75;;
19163;SDS011;9714;51.208;4.242;2023-05-10T12:22:11;18.80;;;10.45;;
19163;SDS011;9714;51.208;4.242;2023-05-10T12:24:40;24.33;;;11.33;;
19163;SDS011;9714;51.208;4.242;2023-05-10T12:27:09;20.10;;;11.10;;
19163;SDS011;9714;51.208;4.242;2023-05-10T12:29:37;19.30;;;10.23;;
19163;SDS011;9714;51.208;4.242;2023-05-10T12:32:11;18.80;;;10.97;;
19163;SDS011;9714;51.208;4.242;2023-05-10T12:34:38;22.40;;;10.70;;
19163;SDS011;9714;51.208;4.242;2023-05-10T12:37:06;19.30;;;11.80;;
19163;SDS011;9714;51.208;4.242;2023-05-10T12:39:43;18.60;;;10.50;;
19163;SDS011;9714;51.208;4.242;2023-05-10T12:42:12;20.67;;;11.60;;
19163;SDS011;9714;51.208;4.242;2023-05-10T12:44:40;19.07;;;10.93;;
19163;SDS011;9714;51.208;4.242;2023-05-10T12:47:09;19.10;;;10.97;;
19163;SDS011;9714;51.208;4.242;2023-05-10T12:49:37;21.70;;;10.73;;
19163;SDS011;9714;51.208;4.242;2023-05-10T12:52:05;18.70;;;10.77;;
19163;SDS011;9714;51.208;4.242;2023-05-10T12:54:33;21.40;;;10.53;;
19163;SDS011;9714;51.208;4.242;2023-05-10T12:57:01;22.63;;;10.37;;
19163;SDS011;9714;51.208;4.242;2023-05-10T12:59:29;19.97;;;9.67;;
19163;SDS011;9714;51.208;4.242;2023-05-10T13:01:57;17.60;;;10.33;;
19163;SDS011;9714;51.208;4.242;2023-05-10T13:04:31;21.53;;;11.57;;
19163;SDS011;9714;51.208;4.242;2023-05-10T13:06:59;21.03;;;13.07;;
19163;SDS011;9714;51.208;4.242;2023-05-10T13:09:26;22.17;;;12.73;;
19163;SDS011;9714;51.208;4.242;2023-05-10T13:11:55;25.03;;;12.60;;
19163;SDS011;9714;51.208;4.242;2023-05-10T13:14:22;23.97;;;12.40;;
19163;SDS011;9714;51.208;4.242;2023-05-10T13:16:52;22.83;;;12.73;;
19163;SDS011;9714;51.208;4.242;2023-05-10T13:19:19;22.47;;;13.40;;
19163;SDS011;9714;51.208;4.242;2023-05-10T13:21:47;21.97;;;13.60;;
19163;SDS011;9714;51.208;4.242;2023-05-10T13:24:15;26.83;;;14.50;;
19163;SDS011;9714;51.208;4.242;2023-05-10T13:26:45;23.23;;;14.67;;
19163;SDS011;9714;51.208;4.242;2023-05-10T13:29:12;23.57;;;12.77;;
19163;SDS011;9714;51.208;4.242;2023-05-10T13:31:42;22.33;;;13.67;;
19163;SDS011;9714;51.208;4.242;2023-05-10T13:34:11;22.70;;;14.17;;
19163;SDS011;9714;51.208;4.242;2023-05-10T13:36:39;23.03;;;16.07;;
19163;SDS011;9714;51.208;4.242;2023-05-10T13:39:07;25.97;;;16.37;;
19163;SDS011;9714;51.208;4.242;2023-05-10T13:41:35;26.87;;;16.73;;
19163;SDS011;9714;51.208;4.242;2023-05-10T13:44:03;27.07;;;17.37;;
19163;SDS011;9714;51.208;4.242;2023-05-10T13:46:33;28.70;;;17.03;;
19163;SDS011;9714;51.208;4.242;2023-05-10T13:49:02;27.80;;;17.03;;
19163;SDS011;9714;51.208;4.242;2023-05-10T13:51:31;28.77;;;17.13;;
19163;SDS011;9714;51.208;4.242;2023-05-10T13:54:00;30.87;;;17.43;;
19163;SDS011;9714;51.208;4.242;2023-05-10T13:56:28;26.53;;;16.57;;
19163;SDS011;9714;51.208;4.242;2023-05-10T13:58:56;27.77;;;16.67;;
19163;SDS011;9714;51.208;4.242;2023-05-10T14:01:23;26.07;;;17.53;;
19163;SDS011;9714;51.208;4.242;2023-05-10T14:03:51;26.10;;;16.50;;
19163;SDS011;9714;51.208;4.242;2023-05-10T14:06:18;24.57;;;16.57;;
19163;SDS011;9714;51.208;4.242;2023-05-10T14:08:48;27.43;;;16.33;;
19163;SDS011;9714;51.208;4.242;2023-05-10T14:11:21;24.30;;;15.02;;
19163;SDS011;9714;51.208;4.242;2023-05-10T14:13:48;25.53;;;16.03;;
19163;SDS011;9714;51.208;4.242;2023-05-10T14:16:17;28.57;;;17.37;;
19163;SDS011;9714;51.208;4.242;2023-05-10T14:18:48;25.47;;;17.27;;
19163;SDS011;9714;51.208;4.242;2023-05-10T14:21:15;27.40;;;17.55;;
19163;SDS011;9714;51.208;4.242;2023-05-10T14:23:42;21.80;;;12.80;;
19163;SDS011;9714;51.208;4.242;2023-05-10T14:26:12;17.33;;;7.63;;
19163;SDS011;9714;51.208;4.242;2023-05-10T14:28:44;15.80;;;7.40;;
19163;SDS011;9714;51.208;4.242;2023-05-10T14:31:12;14.37;;;7.57;;
19163;SDS011;9714;51.208;4.242;2023-05-10T14:33:40;14.67;;;6.20;;
19163;SDS011;9714;51.208;4.242;2023-05-10T14:36:10;14.43;;;6.77;;
19163;SDS011;9714;51.208;4.242;2023-05-10T14:38:43;14.63;;;7.13;;
19163;SDS011;9714;51.208;4.242;2023-05-10T14:41:19;13.10;;;7.23;;
19163;SDS011;9714;51.208;4.242;2023-05-10T14:43:47;12.67;;;6.93;;
19163;SDS011;9714;51.208;4.242;2023-05-10T14:46:14;14.00;;;6.60;;
19163;SDS011;9714;51.208;4.242;2023-05-10T14:49:11;13.50;;;6.50;;
19163;SDS011;9714;51.208;4.242;2023-05-10T14:51:47;13.03;;;6.30;;
19163;SDS011;9714;51.208;4.242;2023-05-10T14:54:17;12.23;;;4.77;;
19163;SDS011;9714;51.208;4.242;2023-05-10T14:56:46;11.03;;;4.57;;
19163;SDS011;9714;51.208;4.242;2023-05-10T14:59:15;8.53;;;4.00;;
19163;SDS011;9714;51.208;4.242;2023-05-10T15:01:45;9.83;;;4.00;;
19163;SDS011;9714;51.208;4.242;2023-05-10T15:04:13;8.87;;;3.70;;